createdAt,value
2022-10-03T00:02:05.032Z,81.62
2022-10-03T00:07:19.807Z,81.75
2022-10-03T00:12:42.318Z,81.49
2022-10-03T00:17:57.461Z,81.27
2022-10-03T00:23:08.034Z,81.26
2022-10-03T00:28:25.006Z,81.40
2022-10-03T00:33:40.648Z,81.05
2022-10-03T00:39:14.828Z,80.53
2022-10-03T00:44:47.509Z,80.46
2022-10-03T00:50:18.322Z,80.21
2022-10-03T00:55:31.262Z,80.29
2022-10-03T01:00:35.887Z,80.21
2022-10-03T01:05:55.954Z,80.27
2022-10-03T01:11:09.757Z,80.34
2022-10-03T01:16:20.978Z,80.49
2022-10-03T01:21:38.300Z,80.55
2022-10-03T01:26:55.918Z,81.07
2022-10-03T01:32:05.151Z,81.32
2022-10-03T01:37:11.597Z,81.69
2022-10-03T01:42:20.808Z,82.07
2022-10-03T01:47:34.324Z,82.57
2022-10-03T01:52:42.282Z,83.32
2022-10-03T01:57:50.549Z,83.12
2022-10-03T02:03:06.912Z,83.22
2022-10-03T02:08:23.069Z,83.60
2022-10-03T02:13:32.275Z,83.45
2022-10-03T02:18:46.150Z,83.29
2022-10-03T02:23:50.737Z,83.29
2022-10-03T02:29:18.449Z,83.59
2022-10-03T02:34:43.126Z,83.46
2022-10-03T02:40:36.406Z,84.11
2022-10-03T02:45:58.086Z,84.94
2022-10-03T02:51:44.982Z,84.03
2022-10-03T02:57:32.077Z,83.72
2022-10-03T03:03:25.153Z,83.93
2022-10-03T03:09:03.298Z,83.85
2022-10-03T03:14:46.185Z,83.70
2022-10-03T03:20:04.049Z,84.29
2022-10-03T03:25:23.198Z,84.70
2022-10-03T03:30:33.412Z,84.31
2022-10-03T03:35:54.201Z,84.34
2022-10-03T03:41:13.105Z,84.24
2022-10-03T03:46:34.376Z,84.18
2022-10-03T03:51:44.062Z,84.20
2022-10-03T03:57:05.588Z,84.56
2022-10-03T04:02:27.010Z,84.62
2022-10-03T04:07:49.097Z,84.58
2022-10-03T04:13:18.859Z,84.73
2022-10-03T04:18:51.605Z,84.72
2022-10-03T04:24:08.251Z,84.62
2022-10-03T04:29:43.419Z,84.60
2022-10-03T04:34:58.125Z,84.52
2022-10-03T04:40:19.080Z,84.63
2022-10-03T04:45:42.185Z,85.58
2022-10-03T04:50:57.309Z,85.10
2022-10-03T04:56:14.915Z,85.76
2022-10-03T05:01:26.305Z,86.54
2022-10-03T05:06:39.017Z,86.07
2022-10-03T05:11:57.099Z,86.62
2022-10-03T05:17:08.446Z,86.41
2022-10-03T05:22:23.563Z,86.55
2022-10-03T05:27:36.157Z,86.56
2022-10-03T05:32:46.381Z,86.65
2022-10-03T05:38:13.495Z,87.20
2022-10-03T05:43:29.956Z,86.51
2022-10-03T05:48:45.367Z,86.22
2022-10-03T05:54:33.432Z,87.35
2022-10-03T06:00:08.649Z,87.39
2022-10-03T06:05:30.614Z,86.71
2022-10-03T06:10:56.471Z,86.75
2022-10-03T06:16:06.513Z,85.89
2022-10-03T06:21:43.425Z,85.20
2022-10-03T06:27:17.002Z,84.59
2022-10-03T06:32:51.180Z,85.20
2022-10-03T06:38:34.809Z,85.88
2022-10-03T06:44:07.709Z,84.88
2022-10-03T06:49:53.428Z,84.39
2022-10-03T06:55:35.673Z,84.20
2022-10-03T07:00:54.545Z,83.24
2022-10-03T07:06:12.889Z,81.84
2022-10-03T07:11:34.602Z,82.91
2022-10-03T07:17:01.360Z,82.47
2022-10-03T07:22:41.638Z,81.08
2022-10-03T07:28:18.038Z,82.10
2022-10-03T07:33:53.430Z,81.23
2022-10-03T07:39:52.416Z,80.11
2022-10-03T07:45:24.369Z,79.20
2022-10-03T07:50:50.378Z,79.10
2022-10-03T07:56:15.129Z,79.66
2022-10-03T08:01:45.098Z,78.68
2022-10-03T08:06:58.125Z,77.74
2022-10-03T08:12:40.401Z,78.12
2022-10-03T08:18:18.874Z,76.06
2022-10-03T08:23:45.892Z,75.99
2022-10-03T08:29:14.387Z,76.75
2022-10-03T08:35:02.163Z,74.46
2022-10-03T08:40:44.757Z,74.89
2022-10-03T08:46:00.384Z,73.80
2022-10-03T08:51:40.606Z,72.67
2022-10-03T08:57:02.466Z,73.59
2022-10-03T09:02:57.424Z,72.82
2022-10-03T09:08:48.124Z,69.64
2022-10-03T09:14:34.226Z,68.81
2022-10-03T09:20:09.192Z,65.73
2022-10-03T09:25:34.989Z,62.53
2022-10-03T09:30:53.827Z,65.69
2022-10-03T09:36:19.008Z,62.97
2022-10-03T09:42:00.961Z,63.80
2022-10-03T09:54:34.150Z,63.36
2022-10-03T10:00:12.214Z,63.73
2022-10-03T10:05:41.150Z,66.63
2022-10-03T10:10:55.142Z,64.85
2022-10-03T10:16:33.100Z,65.34
2022-10-03T10:21:52.876Z,65.09
2022-10-03T10:27:21.289Z,64.97
2022-10-03T10:33:01.472Z,65.05
2022-10-03T10:38:28.167Z,64.11
2022-10-03T10:44:24.938Z,63.00
2022-10-03T10:50:05.180Z,63.16
2022-10-03T10:55:45.404Z,56.40
2022-10-03T11:01:22.820Z,54.36
2022-10-03T11:07:01.069Z,55.92
2022-10-03T11:12:56.382Z,54.74
2022-10-03T11:18:47.745Z,60.00
2022-10-03T11:24:32.502Z,61.19
2022-10-03T11:35:50.269Z,61.68
2022-10-03T11:41:04.511Z,62.46
2022-10-03T11:46:22.618Z,62.27
2022-10-03T11:51:39.020Z,62.93
2022-10-03T11:56:45.947Z,63.07
2022-10-03T12:02:07.729Z,65.02
2022-10-03T12:07:37.549Z,64.69
2022-10-03T12:12:47.729Z,65.00
2022-10-03T12:18:02.562Z,64.45
2022-10-03T12:23:19.091Z,63.43
2022-10-03T12:28:27.930Z,61.15
2022-10-03T12:33:52.713Z,59.61
2022-10-03T12:39:15.321Z,61.89
2022-10-03T12:44:35.625Z,62.11
2022-10-03T12:49:52.522Z,60.08
2022-10-03T12:55:07.089Z,56.45
2022-10-03T13:00:20.833Z,58.01
2022-10-03T13:11:16.642Z,50.17
2022-10-03T13:16:24.977Z,45.83
2022-10-03T13:21:51.623Z,44.90
2022-10-03T13:27:03.813Z,47.59
2022-10-03T13:32:16.281Z,47.01
2022-10-03T13:37:25.963Z,48.04
2022-10-03T13:42:39.080Z,47.72
2022-10-03T13:47:49.329Z,48.97
2022-10-03T13:53:01.048Z,49.61
2022-10-03T13:58:25.067Z,51.32
2022-10-03T14:09:35.559Z,50.87
2022-10-03T14:21:46.871Z,50.46
2022-10-03T14:26:56.061Z,52.59
2022-10-03T14:32:28.375Z,53.22
2022-10-03T14:37:41.944Z,53.22
2022-10-03T14:42:57.488Z,54.22
2022-10-03T14:48:07.517Z,55.11
2022-10-03T14:53:17.979Z,55.87
2022-10-03T14:58:23.937Z,57.58
2022-10-03T15:03:33.583Z,56.80
2022-10-03T15:08:42.939Z,56.43
2022-10-03T15:13:48.949Z,57.18
2022-10-03T15:18:56.262Z,57.84
2022-10-03T15:24:03.784Z,59.18
2022-10-03T15:29:08.397Z,60.09
2022-10-03T15:34:18.427Z,60.25
2022-10-03T15:39:27.859Z,60.46
2022-10-03T15:44:39.082Z,61.19
2022-10-03T15:49:50.181Z,60.92
2022-10-03T15:55:11.174Z,61.64
2022-10-03T16:00:24.564Z,61.04
2022-10-03T16:05:28.498Z,60.61
2022-10-03T16:10:39.661Z,62.43
2022-10-03T16:16:10.734Z,62.65
2022-10-03T16:21:17.656Z,62.15
2022-10-03T16:26:26.871Z,62.47
2022-10-03T16:31:37.425Z,63.42
2022-10-03T16:36:44.689Z,63.69
2022-10-03T16:41:54.196Z,63.79
2022-10-03T16:47:02.645Z,64.37
2022-10-03T16:52:11.488Z,64.69
2022-10-03T16:57:20.475Z,65.33
2022-10-03T17:02:28.231Z,65.86
2022-10-03T17:07:38.189Z,66.28
2022-10-03T17:12:46.414Z,66.52
2022-10-03T17:17:55.266Z,67.07
2022-10-03T17:23:02.419Z,67.77
2022-10-03T17:28:10.814Z,68.05
2022-10-03T17:33:22.154Z,68.20
2022-10-03T17:44:17.215Z,69.03
2022-10-03T17:49:26.153Z,69.50
2022-10-03T17:54:34.482Z,69.38
2022-10-03T17:59:46.821Z,69.67
2022-10-03T18:04:58.553Z,69.86
2022-10-03T18:10:01.884Z,70.23
2022-10-03T18:15:41.138Z,70.38
2022-10-03T18:20:49.514Z,70.06
2022-10-03T18:26:19.115Z,70.16
2022-10-03T18:31:26.433Z,70.12
2022-10-03T18:36:33.678Z,70.32
2022-10-03T18:41:36.744Z,70.46
2022-10-03T18:46:43.037Z,70.84
2022-10-03T18:51:50.599Z,71.14
2022-10-03T18:57:08.313Z,71.60
2022-10-03T19:02:21.151Z,71.45
2022-10-03T19:07:25.002Z,71.64
2022-10-03T19:12:34.419Z,72.38
2022-10-03T19:17:50.043Z,72.43
2022-10-03T19:23:01.670Z,72.21
2022-10-03T19:28:14.644Z,72.40
2022-10-03T19:33:22.936Z,72.86
2022-10-03T19:38:28.608Z,73.10
2022-10-03T19:43:37.648Z,72.32
2022-10-03T19:48:49.462Z,72.68
2022-10-03T19:53:54.092Z,72.54
2022-10-03T19:59:05.867Z,73.24
2022-10-03T20:04:10.340Z,73.23
2022-10-03T20:09:23.612Z,74.39
2022-10-03T20:14:32.068Z,73.29
2022-10-03T20:19:54.300Z,73.09
2022-10-03T20:24:57.225Z,73.76
2022-10-03T20:30:08.414Z,74.34
2022-10-03T20:35:15.984Z,74.07
2022-10-03T20:40:36.140Z,74.04
2022-10-03T20:45:40.932Z,74.38
2022-10-03T20:50:48.459Z,74.95
2022-10-03T20:55:53.679Z,75.31
2022-10-03T21:01:03.049Z,74.55
2022-10-03T21:06:18.713Z,74.55
2022-10-03T21:11:25.251Z,74.53
2022-10-03T21:16:31.428Z,74.73
2022-10-03T21:21:42.401Z,75.08
2022-10-03T21:26:49.066Z,75.11
2022-10-03T21:31:58.740Z,75.06
2022-10-03T21:37:13.375Z,74.95
2022-10-03T21:42:24.463Z,75.22
2022-10-03T21:47:37.204Z,75.37
2022-10-03T21:53:00.303Z,75.14
2022-10-03T21:58:16.664Z,75.22
2022-10-03T22:03:24.200Z,75.04
2022-10-03T22:08:31.921Z,75.45
2022-10-03T22:13:38.353Z,75.33
2022-10-03T22:19:05.053Z,75.24
2022-10-03T22:24:17.478Z,75.40
2022-10-03T22:29:29.326Z,75.76
2022-10-03T22:34:44.605Z,76.54
2022-10-03T22:39:50.953Z,76.85
2022-10-03T22:44:54.953Z,76.57
2022-10-03T22:50:01.515Z,76.38
2022-10-03T22:55:09.395Z,76.38
2022-10-03T23:00:15.448Z,76.13
2022-10-03T23:05:30.572Z,76.06
2022-10-03T23:10:43.041Z,75.81
2022-10-03T23:15:50.283Z,75.65
2022-10-03T23:21:05.888Z,75.71
2022-10-03T23:26:35.512Z,76.36
2022-10-03T23:31:57.612Z,76.77
2022-10-03T23:37:02.905Z,76.39
2022-10-03T23:42:10.712Z,76.42
2022-10-03T23:47:16.013Z,76.60
2022-10-03T23:52:24.536Z,76.61
2022-10-03T23:57:40.843Z,76.76
